createdAt,value
2023-01-03T00:07:33.484Z,101450
2023-01-03T00:13:25.483Z,101460
2023-01-03T00:19:15.891Z,101448
2023-01-03T00:25:05.627Z,101449
2023-01-03T00:30:56.351Z,101452
2023-01-03T00:36:51.152Z,101461
2023-01-03T00:42:48.502Z,101467
2023-01-03T00:48:46.177Z,101469
2023-01-03T00:54:40.061Z,101475
2023-01-03T01:00:32.397Z,101477
2023-01-03T01:06:36.604Z,101474
2023-01-03T01:12:28.091Z,101480
2023-01-03T01:18:16.585Z,101479
2023-01-03T01:24:11.572Z,101486
2023-01-03T01:30:06.585Z,101494
2023-01-03T01:35:56.090Z,101501
2023-01-03T01:41:46.510Z,101505
2023-01-03T01:47:37.400Z,101510
2023-01-03T01:53:32.336Z,101520
2023-01-03T01:59:25.336Z,101524
2023-01-03T02:05:21.919Z,101525
2023-01-03T02:11:18.259Z,101532
2023-01-03T02:17:10.068Z,101534
2023-01-03T02:22:59.960Z,101535
2023-01-03T02:28:53.624Z,101543
2023-01-03T02:34:44.643Z,101539
2023-01-03T02:40:34.428Z,101539
2023-01-03T02:46:29.645Z,101539
2023-01-03T02:52:18.385Z,101542
2023-01-03T02:58:09.493Z,101540
2023-01-03T03:04:02.265Z,101544
2023-01-03T03:09:58.559Z,101547
2023-01-03T03:15:50.302Z,101549
2023-01-03T03:21:40.338Z,101548
2023-01-03T03:27:30.469Z,101552
2023-01-03T03:33:20.788Z,101545
2023-01-03T03:39:10.923Z,101554
2023-01-03T03:45:05.238Z,101555
2023-01-03T03:50:54.522Z,101550
2023-01-03T03:56:46.438Z,101544
2023-01-03T04:02:37.756Z,101546
2023-01-03T04:08:38.856Z,101548
2023-01-03T04:14:27.672Z,101554
2023-01-03T04:20:18.286Z,101555
2023-01-03T04:26:14.621Z,101554
2023-01-03T04:32:04.720Z,101547
2023-01-03T04:37:54.266Z,101541
2023-01-03T04:43:49.020Z,101540
2023-01-03T04:49:46.926Z,101550
2023-01-03T04:55:36.340Z,101552
2023-01-03T05:01:36.986Z,101547
2023-01-03T05:07:35.078Z,101542
2023-01-03T05:13:32.103Z,101558
2023-01-03T05:19:19.548Z,101556
2023-01-03T05:25:11.067Z,101556
2023-01-03T05:31:02.210Z,101555
2023-01-03T05:36:53.074Z,101557
2023-01-03T05:42:43.533Z,101552
2023-01-03T05:48:35.003Z,101566
2023-01-03T05:54:25.309Z,101569
2023-01-03T06:00:16.697Z,101557
2023-01-03T06:06:07.357Z,101560
2023-01-03T06:11:57.751Z,101575
2023-01-03T06:17:48.633Z,101578
2023-01-03T06:23:41.679Z,101575
2023-01-03T06:29:33.361Z,101576
2023-01-03T06:35:24.364Z,101582
2023-01-03T06:41:15.456Z,101580
2023-01-03T06:47:07.393Z,101573
2023-01-03T06:52:57.703Z,101581
2023-01-03T06:58:48.269Z,101588
2023-01-03T07:04:39.891Z,101589
2023-01-03T07:10:31.013Z,101594
2023-01-03T07:16:23.560Z,101603
2023-01-03T07:22:14.823Z,101602
2023-01-03T07:28:12.598Z,101610
2023-01-03T07:34:03.505Z,101627
2023-01-03T07:39:55.979Z,101631
2023-01-03T07:45:46.269Z,101634
2023-01-03T07:51:37.700Z,101638
2023-01-03T07:57:28.022Z,101635
2023-01-03T08:03:18.440Z,101634
2023-01-03T08:09:11.644Z,101633
2023-01-03T08:15:02.601Z,101628
2023-01-03T08:20:53.630Z,101638
2023-01-03T08:26:44.448Z,101651
2023-01-03T08:32:35.172Z,101656
2023-01-03T08:38:24.137Z,101665
2023-01-03T09:24:13.200Z,101667
2023-01-03T09:30:03.177Z,101663
2023-01-03T09:35:54.102Z,101664
2023-01-03T09:41:48.018Z,101663
2023-01-03T09:47:37.630Z,101666
2023-01-03T09:53:27.835Z,101680
2023-01-03T09:59:19.187Z,101675
2023-01-03T10:05:09.545Z,101670
2023-01-03T10:11:00.913Z,101661
2023-01-03T10:16:51.181Z,101650
2023-01-03T10:22:41.932Z,101643
2023-01-03T10:28:33.085Z,101650
2023-01-03T10:34:25.001Z,101640
2023-01-03T10:40:15.075Z,101652
2023-01-03T10:46:04.728Z,101651
2023-01-03T10:51:54.510Z,101650
2023-01-03T10:57:45.319Z,101638
2023-01-03T11:03:36.386Z,101630
2023-01-03T11:09:26.379Z,101624
2023-01-03T11:15:17.170Z,101627
2023-01-03T11:21:07.173Z,101623
2023-01-03T11:26:57.426Z,101627
2023-01-03T11:32:48.074Z,101624
2023-01-03T11:38:38.395Z,101627
2023-01-03T11:44:29.651Z,101621
2023-01-03T11:50:20.814Z,101629
2023-01-03T11:56:13.146Z,101614
2023-01-03T12:02:05.189Z,101599
2023-01-03T12:07:56.607Z,101590
2023-01-03T12:13:48.054Z,101587
2023-01-03T12:19:38.189Z,101582
2023-01-03T12:25:29.517Z,101570
2023-01-03T12:31:24.052Z,101573
2023-01-03T12:37:21.568Z,101562
2023-01-03T12:43:13.778Z,101566
2023-01-03T12:49:04.841Z,101566
2023-01-03T12:54:54.610Z,101555
2023-01-03T13:00:43.349Z,101557
2023-01-03T13:06:33.900Z,101545
2023-01-03T13:12:24.392Z,101538
2023-01-03T13:18:14.583Z,101542
2023-01-03T13:24:05.509Z,101538
2023-01-03T13:29:56.215Z,101538
2023-01-03T13:35:47.816Z,101541
2023-01-03T13:41:39.485Z,101545
2023-01-03T13:47:32.591Z,101543
2023-01-03T13:53:23.178Z,101541
2023-01-03T13:59:15.761Z,101542
2023-01-03T14:05:06.525Z,101544
2023-01-03T14:10:57.751Z,101545
2023-01-03T14:16:48.829Z,101551
2023-01-03T14:22:39.884Z,101555
2023-01-03T14:28:30.927Z,101561
2023-01-03T14:34:20.709Z,101560
2023-01-03T14:40:11.862Z,101562
2023-01-03T14:46:01.926Z,101563
2023-01-03T14:51:52.970Z,101575
2023-01-03T14:57:42.934Z,101580
2023-01-03T15:03:33.667Z,101582
2023-01-03T15:09:24.489Z,101580
2023-01-03T15:15:17.010Z,101576
2023-01-03T15:21:07.543Z,101584
2023-01-03T15:26:58.003Z,101587
2023-01-03T15:32:49.102Z,101594
2023-01-03T15:38:40.930Z,101601
2023-01-03T15:44:34.647Z,101603
2023-01-03T15:50:26.013Z,101597
2023-01-03T15:56:17.449Z,101597
2023-01-03T16:02:07.907Z,101591
2023-01-03T16:07:59.782Z,101583
2023-01-03T16:13:50.612Z,101596
2023-01-03T16:19:41.562Z,101585
2023-01-03T16:25:32.511Z,101586
2023-01-03T16:31:23.470Z,101581
2023-01-03T16:37:15.174Z,101586
2023-01-03T16:43:06.990Z,101586
2023-01-03T16:48:57.394Z,101581
2023-01-03T16:54:48.424Z,101584
2023-01-03T17:00:37.373Z,101573
2023-01-03T17:06:30.578Z,101588
2023-01-03T17:12:26.552Z,101584
2023-01-03T17:18:18.086Z,101577
2023-01-03T17:24:10.516Z,101590
2023-01-03T17:30:00.560Z,101596
2023-01-03T17:35:52.157Z,101588
2023-01-03T17:41:42.702Z,101593
2023-01-03T17:47:32.725Z,101598
2023-01-03T17:53:23.006Z,101594
2023-01-03T17:59:13.483Z,101609
2023-01-03T18:05:32.773Z,101600
2023-01-03T18:11:20.880Z,101592
2023-01-03T18:17:11.496Z,101595
2023-01-03T18:23:02.295Z,101602
2023-01-03T18:28:54.085Z,101602
2023-01-03T18:34:45.275Z,101591
2023-01-03T18:41:05.602Z,101586
2023-01-03T18:46:55.275Z,101584
2023-01-03T18:52:44.677Z,101574
2023-01-03T18:58:36.210Z,101565
2023-01-03T19:04:28.379Z,101579
2023-01-03T19:10:19.525Z,101574
2023-01-03T19:16:11.497Z,101567
2023-01-03T19:22:08.560Z,101561
2023-01-03T19:28:13.998Z,101551
2023-01-03T19:34:04.621Z,101540
2023-01-03T19:39:54.749Z,101527
2023-01-03T19:45:46.104Z,101518
2023-01-03T19:51:36.978Z,101504
2023-01-03T19:57:26.311Z,101482
2023-01-03T20:03:16.955Z,101482
2023-01-03T20:09:07.014Z,101484
2023-01-03T20:15:06.722Z,101477
2023-01-03T20:20:56.749Z,101487
2023-01-03T20:26:49.443Z,101468
2023-01-03T20:32:41.481Z,101463
2023-01-03T20:38:31.923Z,101461
2023-01-03T20:44:23.729Z,101466
2023-01-03T20:50:13.809Z,101465
2023-01-03T20:56:04.890Z,101439
2023-01-03T21:01:57.457Z,101432
2023-01-03T21:07:48.652Z,101428
2023-01-03T21:13:40.206Z,101433
2023-01-03T21:19:30.678Z,101426
2023-01-03T21:25:20.620Z,101431
2023-01-03T21:31:09.923Z,101432
2023-01-03T21:36:59.403Z,101437
2023-01-03T21:42:48.978Z,101437
2023-01-03T21:48:45.429Z,101432
2023-01-03T21:54:36.244Z,101427
2023-01-03T22:00:26.888Z,101427
2023-01-03T22:06:20.070Z,101426
2023-01-03T22:12:09.865Z,101400
2023-01-03T22:18:04.941Z,101393
2023-01-03T22:23:55.455Z,101372
2023-01-03T22:29:47.207Z,101373
2023-01-03T22:35:37.348Z,101387
2023-01-03T22:41:27.611Z,101374
2023-01-03T22:47:17.187Z,101389
2023-01-03T22:53:07.298Z,101388
2023-01-03T22:58:57.703Z,101385
2023-01-03T23:04:47.599Z,101369
2023-01-03T23:10:39.104Z,101357
2023-01-03T23:16:30.769Z,101340
2023-01-03T23:22:22.378Z,101339
2023-01-03T23:28:12.466Z,101334
2023-01-03T23:34:04.171Z,101332
2023-01-03T23:39:54.331Z,101320
2023-01-03T23:45:45.519Z,101323
2023-01-03T23:51:35.981Z,101294
2023-01-03T23:57:26.637Z,101288
